sensor_id;sensor_type;location;lat;lon;timestamp;temperature;humidity
26212;DHT22;13951;49.516;6.094;2023-09-19T00:00:24;17.40;99.90
26212;DHT22;13951;49.516;6.094;2023-09-19T00:03:00;17.30;99.90
26212;DHT22;13951;49.516;6.094;2023-09-19T00:05:34;17.40;99.90
26212;DHT22;13951;49.516;6.094;2023-09-19T00:08:08;17.30;99.90
26212;DHT22;13951;49.516;6.094;2023-09-19T00:10:42;17.30;99.90
26212;DHT22;13951;49.516;6.094;2023-09-19T00:13:15;17.30;99.90
26212;DHT22;13951;49.516;6.094;2023-09-19T00:15:48;17.20;99.90
26212;DHT22;13951;49.516;6.094;2023-09-19T00:18:22;17.20;99.90
26212;DHT22;13951;49.516;6.094;2023-09-19T00:20:58;17.20;99.90
26212;DHT22;13951;49.516;6.094;2023-09-19T00:23:31;17.30;99.90
26212;DHT22;13951;49.516;6.094;2023-09-19T00:26:05;17.20;99.90
26212;DHT22;13951;49.516;6.094;2023-09-19T00:28:39;17.20;99.90
26212;DHT22;13951;49.516;6.094;2023-09-19T00:31:12;17.20;99.90
26212;DHT22;13951;49.516;6.094;2023-09-19T00:33:46;17.10;99.90
26212;DHT22;13951;49.516;6.094;2023-09-19T00:36:21;17.20;99.90
26212;DHT22;13951;49.516;6.094;2023-09-19T00:38:54;17.10;99.90
26212;DHT22;13951;49.516;6.094;2023-09-19T00:41:28;17.10;99.90
26212;DHT22;13951;49.516;6.094;2023-09-19T00:44:03;17.10;99.90
26212;DHT22;13951;49.516;6.094;2023-09-19T00:46:37;17.20;99.90
26212;DHT22;13951;49.516;6.094;2023-09-19T00:49:10;17.10;99.90
26212;DHT22;13951;49.516;6.094;2023-09-19T00:51:45;17.00;99.90
26212;DHT22;13951;49.516;6.094;2023-09-19T00:54:18;17.00;99.90
26212;DHT22;13951;49.516;6.094;2023-09-19T00:56:51;17.10;99.90
26212;DHT22;13951;49.516;6.094;2023-09-19T00:59:28;17.00;99.90
26212;DHT22;13951;49.516;6.094;2023-09-19T01:02:03;17.00;99.90
26212;DHT22;13951;49.516;6.094;2023-09-19T01:04:38;16.90;99.90
26212;DHT22;13951;49.516;6.094;2023-09-19T01:07:11;16.90;99.90
26212;DHT22;13951;49.516;6.094;2023-09-19T01:09:44;17.00;99.90
26212;DHT22;13951;49.516;6.094;2023-09-19T01:12:30;17.00;99.90
26212;DHT22;13951;49.516;6.094;2023-09-19T01:15:21;17.00;99.90
26212;DHT22;13951;49.516;6.094;2023-09-19T01:21:23;17.00;99.90
26212;DHT22;13951;49.516;6.094;2023-09-19T01:29:46;16.90;99.90
26212;DHT22;13951;49.516;6.094;2023-09-19T01:32:21;16.90;99.90
26212;DHT22;13951;49.516;6.094;2023-09-19T01:34:57;16.80;99.90
26212;DHT22;13951;49.516;6.094;2023-09-19T01:37:36;16.90;99.90
26212;DHT22;13951;49.516;6.094;2023-09-19T01:40:17;16.90;99.90
26212;DHT22;13951;49.516;6.094;2023-09-19T01:51:21;16.80;99.90
26212;DHT22;13951;49.516;6.094;2023-09-19T01:54:04;16.90;99.90
26212;DHT22;13951;49.516;6.094;2023-09-19T01:56:52;16.80;99.90
26212;DHT22;13951;49.516;6.094;2023-09-19T01:59:48;16.80;99.90
26212;DHT22;13951;49.516;6.094;2023-09-19T02:02:25;16.80;99.90
26212;DHT22;13951;49.516;6.094;2023-09-19T02:04:58;16.80;99.90
26212;DHT22;13951;49.516;6.094;2023-09-19T02:07:33;16.80;99.90
26212;DHT22;13951;49.516;6.094;2023-09-19T02:10:07;16.80;99.90
26212;DHT22;13951;49.516;6.094;2023-09-19T02:12:40;16.80;99.90
26212;DHT22;13951;49.516;6.094;2023-09-19T02:15:14;16.80;99.90
26212;DHT22;13951;49.516;6.094;2023-09-19T02:17:48;16.70;99.90
26212;DHT22;13951;49.516;6.094;2023-09-19T02:20:21;16.70;99.90
26212;DHT22;13951;49.516;6.094;2023-09-19T02:22:55;16.70;99.90
26212;DHT22;13951;49.516;6.094;2023-09-19T02:25:28;16.70;99.90
26212;DHT22;13951;49.516;6.094;2023-09-19T02:28:02;16.70;99.90
26212;DHT22;13951;49.516;6.094;2023-09-19T02:30:35;16.70;99.90
26212;DHT22;13951;49.516;6.094;2023-09-19T02:33:09;16.70;99.90
26212;DHT22;13951;49.516;6.094;2023-09-19T02:35:42;16.70;99.90
26212;DHT22;13951;49.516;6.094;2023-09-19T02:38:16;16.70;99.90
26212;DHT22;13951;49.516;6.094;2023-09-19T02:40:54;16.80;99.90
26212;DHT22;13951;49.516;6.094;2023-09-19T02:43:28;16.70;99.90
26212;DHT22;13951;49.516;6.094;2023-09-19T02:46:01;16.70;99.90
26212;DHT22;13951;49.516;6.094;2023-09-19T02:48:35;16.80;99.90
26212;DHT22;13951;49.516;6.094;2023-09-19T02:51:09;16.80;99.90
26212;DHT22;13951;49.516;6.094;2023-09-19T02:53:42;16.80;99.90
26212;DHT22;13951;49.516;6.094;2023-09-19T02:56:15;16.80;99.90
26212;DHT22;13951;49.516;6.094;2023-09-19T02:58:48;16.70;99.90
26212;DHT22;13951;49.516;6.094;2023-09-19T03:01:22;16.80;99.90
26212;DHT22;13951;49.516;6.094;2023-09-19T03:03:55;16.70;99.90
26212;DHT22;13951;49.516;6.094;2023-09-19T03:06:29;16.70;99.90
26212;DHT22;13951;49.516;6.094;2023-09-19T03:09:04;16.60;99.90
26212;DHT22;13951;49.516;6.094;2023-09-19T03:11:40;16.70;99.90
26212;DHT22;13951;49.516;6.094;2023-09-19T03:14:15;16.60;99.90
26212;DHT22;13951;49.516;6.094;2023-09-19T03:16:49;16.50;99.90
26212;DHT22;13951;49.516;6.094;2023-09-19T03:19:22;16.60;99.90
26212;DHT22;13951;49.516;6.094;2023-09-19T03:21:56;16.60;99.90
26212;DHT22;13951;49.516;6.094;2023-09-19T03:24:30;16.50;99.90
26212;DHT22;13951;49.516;6.094;2023-09-19T03:27:04;16.40;99.90
26212;DHT22;13951;49.516;6.094;2023-09-19T03:29:38;16.50;99.90
26212;DHT22;13951;49.516;6.094;2023-09-19T03:32:12;16.50;99.90
26212;DHT22;13951;49.516;6.094;2023-09-19T03:34:45;16.40;99.90
26212;DHT22;13951;49.516;6.094;2023-09-19T03:37:22;16.40;99.90
26212;DHT22;13951;49.516;6.094;2023-09-19T03:39:55;16.30;99.90
26212;DHT22;13951;49.516;6.094;2023-09-19T03:42:28;16.20;99.90
26212;DHT22;13951;49.516;6.094;2023-09-19T03:45:02;16.20;99.90
26212;DHT22;13951;49.516;6.094;2023-09-19T03:47:35;16.10;99.90
26212;DHT22;13951;49.516;6.094;2023-09-19T03:50:10;16.10;99.90
26212;DHT22;13951;49.516;6.094;2023-09-19T03:52:48;16.10;99.90
26212;DHT22;13951;49.516;6.094;2023-09-19T03:55:21;16.00;99.90
26212;DHT22;13951;49.516;6.094;2023-09-19T03:57:54;16.00;99.90
26212;DHT22;13951;49.516;6.094;2023-09-19T04:00:28;16.00;99.90
26212;DHT22;13951;49.516;6.094;2023-09-19T04:03:04;16.00;99.90
26212;DHT22;13951;49.516;6.094;2023-09-19T04:05:40;16.00;99.90
26212;DHT22;13951;49.516;6.094;2023-09-19T04:08:13;16.00;99.90
26212;DHT22;13951;49.516;6.094;2023-09-19T04:10:46;16.00;99.90
26212;DHT22;13951;49.516;6.094;2023-09-19T04:13:21;15.90;99.90
26212;DHT22;13951;49.516;6.094;2023-09-19T04:15:54;15.90;99.90
26212;DHT22;13951;49.516;6.094;2023-09-19T04:18:28;15.90;99.90
26212;DHT22;13951;49.516;6.094;2023-09-19T04:21:04;15.80;99.90
26212;DHT22;13951;49.516;6.094;2023-09-19T04:23:39;15.80;99.90
26212;DHT22;13951;49.516;6.094;2023-09-19T04:26:12;15.80;99.90
26212;DHT22;13951;49.516;6.094;2023-09-19T04:28:45;15.80;99.90
26212;DHT22;13951;49.516;6.094;2023-09-19T04:31:19;15.80;99.90
26212;DHT22;13951;49.516;6.094;2023-09-19T04:33:53;15.80;99.90
26212;DHT22;13951;49.516;6.094;2023-09-19T04:36:26;15.80;99.90
26212;DHT22;13951;49.516;6.094;2023-09-19T04:39:07;15.80;99.90
26212;DHT22;13951;49.516;6.094;2023-09-19T04:41:41;15.80;99.90
26212;DHT22;13951;49.516;6.094;2023-09-19T04:44:14;15.70;99.90
26212;DHT22;13951;49.516;6.094;2023-09-19T04:46:48;15.70;99.90
26212;DHT22;13951;49.516;6.094;2023-09-19T04:49:21;15.80;99.90
26212;DHT22;13951;49.516;6.094;2023-09-19T04:51:55;15.70;99.90
26212;DHT22;13951;49.516;6.094;2023-09-19T04:54:29;15.60;99.90
26212;DHT22;13951;49.516;6.094;2023-09-19T04:57:02;15.60;99.90
26212;DHT22;13951;49.516;6.094;2023-09-19T04:59:35;15.50;99.90
26212;DHT22;13951;49.516;6.094;2023-09-19T05:02:09;15.50;99.90
26212;DHT22;13951;49.516;6.094;2023-09-19T05:04:42;15.50;99.90
26212;DHT22;13951;49.516;6.094;2023-09-19T05:07:16;15.50;99.90
26212;DHT22;13951;49.516;6.094;2023-09-19T05:09:50;15.50;99.90
26212;DHT22;13951;49.516;6.094;2023-09-19T05:12:23;15.50;99.90
26212;DHT22;13951;49.516;6.094;2023-09-19T05:14:56;15.40;99.90
26212;DHT22;13951;49.516;6.094;2023-09-19T05:17:30;15.40;99.90
26212;DHT22;13951;49.516;6.094;2023-09-19T05:20:04;15.40;99.90
26212;DHT22;13951;49.516;6.094;2023-09-19T05:22:48;15.50;99.90
26212;DHT22;13951;49.516;6.094;2023-09-19T05:25:21;15.50;99.90
26212;DHT22;13951;49.516;6.094;2023-09-19T05:28:01;15.50;99.90
26212;DHT22;13951;49.516;6.094;2023-09-19T05:30:37;15.50;99.90
26212;DHT22;13951;49.516;6.094;2023-09-19T05:33:11;15.60;99.90
26212;DHT22;13951;49.516;6.094;2023-09-19T05:35:47;15.60;99.90
26212;DHT22;13951;49.516;6.094;2023-09-19T05:38:20;15.50;99.90
26212;DHT22;13951;49.516;6.094;2023-09-19T05:40:53;15.50;99.90
26212;DHT22;13951;49.516;6.094;2023-09-19T05:43:27;15.50;99.90
26212;DHT22;13951;49.516;6.094;2023-09-19T05:46:00;15.40;99.90
26212;DHT22;13951;49.516;6.094;2023-09-19T05:48:34;15.50;99.90
26212;DHT22;13951;49.516;6.094;2023-09-19T05:51:07;15.50;99.90
26212;DHT22;13951;49.516;6.094;2023-09-19T05:53:40;15.50;99.90
26212;DHT22;13951;49.516;6.094;2023-09-19T05:56:16;15.40;99.90
26212;DHT22;13951;49.516;6.094;2023-09-19T05:58:51;15.40;99.90
26212;DHT22;13951;49.516;6.094;2023-09-19T06:01:25;15.40;99.90
26212;DHT22;13951;49.516;6.094;2023-09-19T06:03:58;15.40;99.90
26212;DHT22;13951;49.516;6.094;2023-09-19T06:06:33;15.40;99.90
26212;DHT22;13951;49.516;6.094;2023-09-19T06:09:09;15.40;99.90
26212;DHT22;13951;49.516;6.094;2023-09-19T06:11:42;15.30;99.90
26212;DHT22;13951;49.516;6.094;2023-09-19T06:14:16;15.30;99.90
26212;DHT22;13951;49.516;6.094;2023-09-19T06:16:50;15.30;99.90
26212;DHT22;13951;49.516;6.094;2023-09-19T06:19:24;15.40;99.90
26212;DHT22;13951;49.516;6.094;2023-09-19T06:21:58;15.40;99.90
26212;DHT22;13951;49.516;6.094;2023-09-19T06:24:33;15.40;99.90
26212;DHT22;13951;49.516;6.094;2023-09-19T06:27:07;15.50;99.90
26212;DHT22;13951;49.516;6.094;2023-09-19T06:29:41;15.50;99.90
26212;DHT22;13951;49.516;6.094;2023-09-19T06:32:14;15.50;99.90
26212;DHT22;13951;49.516;6.094;2023-09-19T06:34:52;15.50;99.90
26212;DHT22;13951;49.516;6.094;2023-09-19T06:37:28;15.60;99.90
26212;DHT22;13951;49.516;6.094;2023-09-19T06:40:01;15.60;99.90
26212;DHT22;13951;49.516;6.094;2023-09-19T06:42:35;15.60;99.90
26212;DHT22;13951;49.516;6.094;2023-09-19T06:45:10;15.60;99.90
26212;DHT22;13951;49.516;6.094;2023-09-19T06:47:47;15.70;99.90
26212;DHT22;13951;49.516;6.094;2023-09-19T06:50:24;15.70;99.90
26212;DHT22;13951;49.516;6.094;2023-09-19T06:52:58;15.70;99.90
26212;DHT22;13951;49.516;6.094;2023-09-19T06:55:32;15.70;99.90
26212;DHT22;13951;49.516;6.094;2023-09-19T06:58:05;15.60;99.90
26212;DHT22;13951;49.516;6.094;2023-09-19T07:00:39;15.60;99.90
26212;DHT22;13951;49.516;6.094;2023-09-19T07:03:13;15.70;99.90
26212;DHT22;13951;49.516;6.094;2023-09-19T07:05:48;15.70;99.90
26212;DHT22;13951;49.516;6.094;2023-09-19T07:08:21;15.80;99.90
26212;DHT22;13951;49.516;6.094;2023-09-19T07:10:56;15.80;99.90
26212;DHT22;13951;49.516;6.094;2023-09-19T07:13:29;15.80;99.90
26212;DHT22;13951;49.516;6.094;2023-09-19T07:16:02;15.80;99.90
26212;DHT22;13951;49.516;6.094;2023-09-19T07:18:36;15.80;99.90
26212;DHT22;13951;49.516;6.094;2023-09-19T07:21:09;15.80;99.90
26212;DHT22;13951;49.516;6.094;2023-09-19T07:23:48;15.90;99.90
26212;DHT22;13951;49.516;6.094;2023-09-19T07:26:27;15.90;99.90
26212;DHT22;13951;49.516;6.094;2023-09-19T07:29:00;15.90;99.90
26212;DHT22;13951;49.516;6.094;2023-09-19T07:31:45;15.90;99.90
26212;DHT22;13951;49.516;6.094;2023-09-19T07:34:19;15.90;99.90
26212;DHT22;13951;49.516;6.094;2023-09-19T07:36:55;16.00;99.90
26212;DHT22;13951;49.516;6.094;2023-09-19T07:39:29;16.00;99.90
26212;DHT22;13951;49.516;6.094;2023-09-19T07:42:03;16.10;99.90
26212;DHT22;13951;49.516;6.094;2023-09-19T07:44:37;16.20;99.90
26212;DHT22;13951;49.516;6.094;2023-09-19T07:47:10;16.30;99.90
26212;DHT22;13951;49.516;6.094;2023-09-19T07:49:47;16.40;99.90
26212;DHT22;13951;49.516;6.094;2023-09-19T07:52:20;16.50;99.90
26212;DHT22;13951;49.516;6.094;2023-09-19T07:54:55;16.50;99.90
26212;DHT22;13951;49.516;6.094;2023-09-19T07:57:35;16.50;99.90
26212;DHT22;13951;49.516;6.094;2023-09-19T08:00:09;16.50;99.90
26212;DHT22;13951;49.516;6.094;2023-09-19T08:02:46;16.60;99.90
26212;DHT22;13951;49.516;6.094;2023-09-19T08:05:30;16.60;99.90
26212;DHT22;13951;49.516;6.094;2023-09-19T08:08:03;16.60;99.90
26212;DHT22;13951;49.516;6.094;2023-09-19T08:10:37;16.70;99.90
26212;DHT22;13951;49.516;6.094;2023-09-19T08:13:13;16.70;99.90
26212;DHT22;13951;49.516;6.094;2023-09-19T08:15:47;16.80;99.90
26212;DHT22;13951;49.516;6.094;2023-09-19T08:18:21;16.80;99.90
26212;DHT22;13951;49.516;6.094;2023-09-19T08:20:55;16.90;99.90
26212;DHT22;13951;49.516;6.094;2023-09-19T08:23:31;16.90;99.90
26212;DHT22;13951;49.516;6.094;2023-09-19T08:26:06;16.90;99.90
26212;DHT22;13951;49.516;6.094;2023-09-19T08:28:43;17.00;99.90
26212;DHT22;13951;49.516;6.094;2023-09-19T08:31:16;17.00;99.90
26212;DHT22;13951;49.516;6.094;2023-09-19T08:33:50;17.10;99.90
26212;DHT22;13951;49.516;6.094;2023-09-19T08:36:25;17.20;99.90
26212;DHT22;13951;49.516;6.094;2023-09-19T08:38:59;17.20;99.90
26212;DHT22;13951;49.516;6.094;2023-09-19T08:41:32;17.30;99.90
26212;DHT22;13951;49.516;6.094;2023-09-19T08:44:05;17.50;99.90
26212;DHT22;13951;49.516;6.094;2023-09-19T08:46:43;17.40;99.90
26212;DHT22;13951;49.516;6.094;2023-09-19T08:49:36;17.50;99.90
26212;DHT22;13951;49.516;6.094;2023-09-19T08:52:42;17.60;99.90
26212;DHT22;13951;49.516;6.094;2023-09-19T08:55:17;17.60;99.90
26212;DHT22;13951;49.516;6.094;2023-09-19T08:58:10;17.80;99.90
26212;DHT22;13951;49.516;6.094;2023-09-19T09:00:45;17.90;99.90
26212;DHT22;13951;49.516;6.094;2023-09-19T09:03:22;18.00;99.90
26212;DHT22;13951;49.516;6.094;2023-09-19T09:05:56;18.10;99.90
26212;DHT22;13951;49.516;6.094;2023-09-19T09:08:31;18.20;99.90
26212;DHT22;13951;49.516;6.094;2023-09-19T09:11:04;18.10;99.90
26212;DHT22;13951;49.516;6.094;2023-09-19T09:13:40;18.20;99.90
26212;DHT22;13951;49.516;6.094;2023-09-19T09:16:15;18.30;99.90
26212;DHT22;13951;49.516;6.094;2023-09-19T09:18:52;18.40;99.90
26212;DHT22;13951;49.516;6.094;2023-09-19T09:21:28;18.40;99.90
26212;DHT22;13951;49.516;6.094;2023-09-19T09:24:27;18.40;99.90
26212;DHT22;13951;49.516;6.094;2023-09-19T09:27:04;18.40;99.90
26212;DHT22;13951;49.516;6.094;2023-09-19T09:29:48;18.40;99.90
26212;DHT22;13951;49.516;6.094;2023-09-19T09:32:29;18.50;99.90
26212;DHT22;13951;49.516;6.094;2023-09-19T09:35:10;18.50;99.90
26212;DHT22;13951;49.516;6.094;2023-09-19T09:37:43;18.60;99.90
26212;DHT22;13951;49.516;6.094;2023-09-19T09:40:18;18.70;99.90
26212;DHT22;13951;49.516;6.094;2023-09-19T09:42:52;18.70;99.90
26212;DHT22;13951;49.516;6.094;2023-09-19T09:45:31;18.70;99.90
26212;DHT22;13951;49.516;6.094;2023-09-19T09:48:04;18.60;99.90
26212;DHT22;13951;49.516;6.094;2023-09-19T09:50:48;18.70;99.90
26212;DHT22;13951;49.516;6.094;2023-09-19T09:53:22;18.90;99.90
26212;DHT22;13951;49.516;6.094;2023-09-19T09:56:05;18.90;99.90
26212;DHT22;13951;49.516;6.094;2023-09-19T09:58:57;19.00;99.90
26212;DHT22;13951;49.516;6.094;2023-09-19T10:01:48;19.00;99.90
26212;DHT22;13951;49.516;6.094;2023-09-19T10:04:28;19.10;99.90
26212;DHT22;13951;49.516;6.094;2023-09-19T10:07:24;19.30;99.90
26212;DHT22;13951;49.516;6.094;2023-09-19T10:10:01;19.40;99.90
26212;DHT22;13951;49.516;6.094;2023-09-19T10:12:49;19.60;99.90
26212;DHT22;13951;49.516;6.094;2023-09-19T10:15:26;19.80;99.90
26212;DHT22;13951;49.516;6.094;2023-09-19T10:18:06;19.90;99.90
26212;DHT22;13951;49.516;6.094;2023-09-19T10:20:41;19.80;99.90
26212;DHT22;13951;49.516;6.094;2023-09-19T10:23:22;19.70;99.90
26212;DHT22;13951;49.516;6.094;2023-09-19T10:25:57;19.60;99.90
26212;DHT22;13951;49.516;6.094;2023-09-19T10:28:32;19.60;99.90
26212;DHT22;13951;49.516;6.094;2023-09-19T10:31:06;19.80;99.90
26212;DHT22;13951;49.516;6.094;2023-09-19T10:33:43;19.90;99.90
26212;DHT22;13951;49.516;6.094;2023-09-19T10:36:17;19.90;99.90
26212;DHT22;13951;49.516;6.094;2023-09-19T10:38:54;20.10;99.90
26212;DHT22;13951;49.516;6.094;2023-09-19T10:41:29;20.20;99.90
26212;DHT22;13951;49.516;6.094;2023-09-19T10:44:04;20.00;99.90
26212;DHT22;13951;49.516;6.094;2023-09-19T10:46:40;19.80;99.90
26212;DHT22;13951;49.516;6.094;2023-09-19T10:49:14;19.70;99.90
26212;DHT22;13951;49.516;6.094;2023-09-19T10:51:49;19.70;99.90
26212;DHT22;13951;49.516;6.094;2023-09-19T10:54:26;19.70;99.90
26212;DHT22;13951;49.516;6.094;2023-09-19T10:57:01;19.60;99.90
26212;DHT22;13951;49.516;6.094;2023-09-19T11:00:04;19.50;99.90
26212;DHT22;13951;49.516;6.094;2023-09-19T11:06:18;19.60;99.90
26212;DHT22;13951;49.516;6.094;2023-09-19T11:11:51;19.90;99.90
26212;DHT22;13951;49.516;6.094;2023-09-19T11:14:30;20.20;99.90
26212;DHT22;13951;49.516;6.094;2023-09-19T11:30:42;20.70;99.90
26212;DHT22;13951;49.516;6.094;2023-09-19T11:33:27;20.60;99.90
26212;DHT22;13951;49.516;6.094;2023-09-19T11:46:34;20.80;99.90
26212;DHT22;13951;49.516;6.094;2023-09-19T11:49:08;21.00;99.90
26212;DHT22;13951;49.516;6.094;2023-09-19T11:51:43;21.20;99.90
26212;DHT22;13951;49.516;6.094;2023-09-19T11:54:18;21.40;99.90
26212;DHT22;13951;49.516;6.094;2023-09-19T11:56:55;21.30;99.90
26212;DHT22;13951;49.516;6.094;2023-09-19T11:59:30;21.40;99.90
26212;DHT22;13951;49.516;6.094;2023-09-19T12:02:07;21.50;99.90
26212;DHT22;13951;49.516;6.094;2023-09-19T12:04:44;21.50;99.90
26212;DHT22;13951;49.516;6.094;2023-09-19T12:07:22;21.30;99.90
26212;DHT22;13951;49.516;6.094;2023-09-19T12:10:05;21.40;99.90
26212;DHT22;13951;49.516;6.094;2023-09-19T12:12:38;21.60;99.90
26212;DHT22;13951;49.516;6.094;2023-09-19T12:15:11;21.80;99.90
26212;DHT22;13951;49.516;6.094;2023-09-19T12:17:47;22.00;99.90
26212;DHT22;13951;49.516;6.094;2023-09-19T12:20:20;22.30;99.90
26212;DHT22;13951;49.516;6.094;2023-09-19T12:22:53;22.40;99.90
26212;DHT22;13951;49.516;6.094;2023-09-19T12:25:44;22.60;99.90
26212;DHT22;13951;49.516;6.094;2023-09-19T12:28:20;22.80;99.90
26212;DHT22;13951;49.516;6.094;2023-09-19T12:30:56;22.90;99.90
26212;DHT22;13951;49.516;6.094;2023-09-19T12:33:30;23.10;99.90
26212;DHT22;13951;49.516;6.094;2023-09-19T12:36:23;23.20;99.90
26212;DHT22;13951;49.516;6.094;2023-09-19T12:39:03;23.10;99.90
26212;DHT22;13951;49.516;6.094;2023-09-19T12:41:41;22.80;99.90
26212;DHT22;13951;49.516;6.094;2023-09-19T12:44:15;22.60;99.90
26212;DHT22;13951;49.516;6.094;2023-09-19T12:46:48;22.40;99.90
26212;DHT22;13951;49.516;6.094;2023-09-19T12:49:22;22.10;99.90
26212;DHT22;13951;49.516;6.094;2023-09-19T12:51:55;22.10;99.90
26212;DHT22;13951;49.516;6.094;2023-09-19T12:54:42;22.10;99.90
26212;DHT22;13951;49.516;6.094;2023-09-19T12:57:24;22.00;99.90
26212;DHT22;13951;49.516;6.094;2023-09-19T12:59:58;21.80;99.90
26212;DHT22;13951;49.516;6.094;2023-09-19T13:02:32;21.70;99.90
26212;DHT22;13951;49.516;6.094;2023-09-19T13:05:06;21.70;99.90
26212;DHT22;13951;49.516;6.094;2023-09-19T13:07:44;21.70;99.90
26212;DHT22;13951;49.516;6.094;2023-09-19T13:10:22;21.70;99.90
26212;DHT22;13951;49.516;6.094;2023-09-19T13:13:23;21.60;99.90
26212;DHT22;13951;49.516;6.094;2023-09-19T13:16:01;21.60;99.90
26212;DHT22;13951;49.516;6.094;2023-09-19T13:18:48;21.50;99.90
26212;DHT22;13951;49.516;6.094;2023-09-19T13:21:33;21.50;99.90
26212;DHT22;13951;49.516;6.094;2023-09-19T13:24:24;21.60;99.90
26212;DHT22;13951;49.516;6.094;2023-09-19T13:27:00;21.60;99.90
26212;DHT22;13951;49.516;6.094;2023-09-19T13:29:33;21.50;99.90
26212;DHT22;13951;49.516;6.094;2023-09-19T13:32:08;21.60;99.90
26212;DHT22;13951;49.516;6.094;2023-09-19T13:34:44;21.70;99.90
26212;DHT22;13951;49.516;6.094;2023-09-19T13:37:17;21.70;99.90
26212;DHT22;13951;49.516;6.094;2023-09-19T13:39:51;21.50;99.90
26212;DHT22;13951;49.516;6.094;2023-09-19T13:42:26;21.40;99.90
26212;DHT22;13951;49.516;6.094;2023-09-19T13:45:03;21.30;99.90
26212;DHT22;13951;49.516;6.094;2023-09-19T13:47:38;21.10;99.90
26212;DHT22;13951;49.516;6.094;2023-09-19T13:50:11;21.10;99.90
26212;DHT22;13951;49.516;6.094;2023-09-19T13:52:46;20.90;99.90
26212;DHT22;13951;49.516;6.094;2023-09-19T13:55:21;20.80;99.90
26212;DHT22;13951;49.516;6.094;2023-09-19T13:57:54;20.90;99.90
26212;DHT22;13951;49.516;6.094;2023-09-19T14:00:28;20.90;99.90
26212;DHT22;13951;49.516;6.094;2023-09-19T14:03:02;21.00;99.90
26212;DHT22;13951;49.516;6.094;2023-09-19T14:05:37;21.00;99.90
26212;DHT22;13951;49.516;6.094;2023-09-19T14:08:10;21.10;99.90
26212;DHT22;13951;49.516;6.094;2023-09-19T14:10:46;21.10;99.90
26212;DHT22;13951;49.516;6.094;2023-09-19T14:13:19;21.10;99.90
26212;DHT22;13951;49.516;6.094;2023-09-19T14:15:53;21.10;99.90
26212;DHT22;13951;49.516;6.094;2023-09-19T14:18:26;21.10;99.90
26212;DHT22;13951;49.516;6.094;2023-09-19T14:21:06;21.10;99.90
26212;DHT22;13951;49.516;6.094;2023-09-19T14:23:40;21.10;99.90
26212;DHT22;13951;49.516;6.094;2023-09-19T14:26:14;21.10;99.90
26212;DHT22;13951;49.516;6.094;2023-09-19T14:28:48;21.10;99.90
26212;DHT22;13951;49.516;6.094;2023-09-19T14:31:22;21.10;99.90
26212;DHT22;13951;49.516;6.094;2023-09-19T14:33:56;21.10;99.90
26212;DHT22;13951;49.516;6.094;2023-09-19T14:36:29;21.00;99.90
26212;DHT22;13951;49.516;6.094;2023-09-19T14:39:06;20.90;99.90
26212;DHT22;13951;49.516;6.094;2023-09-19T14:41:42;20.90;99.90
26212;DHT22;13951;49.516;6.094;2023-09-19T14:44:15;20.80;99.90
26212;DHT22;13951;49.516;6.094;2023-09-19T14:46:49;20.80;99.90
26212;DHT22;13951;49.516;6.094;2023-09-19T14:49:23;20.80;99.90
26212;DHT22;13951;49.516;6.094;2023-09-19T14:51:58;20.70;99.90
26212;DHT22;13951;49.516;6.094;2023-09-19T14:54:33;20.60;99.90
26212;DHT22;13951;49.516;6.094;2023-09-19T14:57:06;20.50;99.90
26212;DHT22;13951;49.516;6.094;2023-09-19T14:59:41;20.60;99.90
26212;DHT22;13951;49.516;6.094;2023-09-19T15:02:14;20.50;99.90
26212;DHT22;13951;49.516;6.094;2023-09-19T15:04:50;20.50;99.90
26212;DHT22;13951;49.516;6.094;2023-09-19T15:07:23;20.50;99.90
26212;DHT22;13951;49.516;6.094;2023-09-19T15:09:57;20.50;99.90
26212;DHT22;13951;49.516;6.094;2023-09-19T15:12:30;20.50;99.90
26212;DHT22;13951;49.516;6.094;2023-09-19T15:15:05;20.50;99.90
26212;DHT22;13951;49.516;6.094;2023-09-19T15:17:41;20.50;99.90
26212;DHT22;13951;49.516;6.094;2023-09-19T15:20:15;20.50;99.90
26212;DHT22;13951;49.516;6.094;2023-09-19T15:22:49;20.50;99.90
26212;DHT22;13951;49.516;6.094;2023-09-19T15:25:25;20.50;99.90
26212;DHT22;13951;49.516;6.094;2023-09-19T15:27:58;20.40;99.90
26212;DHT22;13951;49.516;6.094;2023-09-19T15:30:39;20.30;99.90
26212;DHT22;13951;49.516;6.094;2023-09-19T15:33:12;20.30;99.90
26212;DHT22;13951;49.516;6.094;2023-09-19T15:35:46;20.20;99.90
26212;DHT22;13951;49.516;6.094;2023-09-19T15:38:19;20.10;99.90
26212;DHT22;13951;49.516;6.094;2023-09-19T15:40:52;20.10;99.90
26212;DHT22;13951;49.516;6.094;2023-09-19T15:43:26;20.00;99.90
26212;DHT22;13951;49.516;6.094;2023-09-19T15:46:00;20.00;99.90
26212;DHT22;13951;49.516;6.094;2023-09-19T15:48:34;19.90;99.90
26212;DHT22;13951;49.516;6.094;2023-09-19T15:51:08;19.90;99.90
26212;DHT22;13951;49.516;6.094;2023-09-19T15:53:46;19.90;99.90
26212;DHT22;13951;49.516;6.094;2023-09-19T15:56:22;19.80;99.90
26212;DHT22;13951;49.516;6.094;2023-09-19T15:58:55;19.80;99.90
26212;DHT22;13951;49.516;6.094;2023-09-19T16:01:29;19.80;99.90
26212;DHT22;13951;49.516;6.094;2023-09-19T16:04:02;19.90;99.90
26212;DHT22;13951;49.516;6.094;2023-09-19T16:06:37;19.90;99.90
26212;DHT22;13951;49.516;6.094;2023-09-19T16:09:11;19.90;99.90
26212;DHT22;13951;49.516;6.094;2023-09-19T16:11:45;19.90;99.90
26212;DHT22;13951;49.516;6.094;2023-09-19T16:14:20;19.90;99.90
26212;DHT22;13951;49.516;6.094;2023-09-19T16:16:54;19.90;99.90
26212;DHT22;13951;49.516;6.094;2023-09-19T16:19:27;20.00;99.90
26212;DHT22;13951;49.516;6.094;2023-09-19T16:22:01;20.00;99.90
26212;DHT22;13951;49.516;6.094;2023-09-19T16:24:34;20.00;99.90
26212;DHT22;13951;49.516;6.094;2023-09-19T16:27:07;20.00;99.90
26212;DHT22;13951;49.516;6.094;2023-09-19T16:29:40;19.90;99.90
26212;DHT22;13951;49.516;6.094;2023-09-19T16:32:14;19.80;99.90
26212;DHT22;13951;49.516;6.094;2023-09-19T16:34:48;19.80;99.90
26212;DHT22;13951;49.516;6.094;2023-09-19T16:37:23;19.70;99.90
26212;DHT22;13951;49.516;6.094;2023-09-19T16:39:57;19.70;99.90
26212;DHT22;13951;49.516;6.094;2023-09-19T16:42:30;19.70;99.90
26212;DHT22;13951;49.516;6.094;2023-09-19T16:45:11;19.70;99.90
26212;DHT22;13951;49.516;6.094;2023-09-19T16:47:44;19.60;99.90
26212;DHT22;13951;49.516;6.094;2023-09-19T16:50:18;19.60;99.90
26212;DHT22;13951;49.516;6.094;2023-09-19T16:52:51;19.60;99.90
26212;DHT22;13951;49.516;6.094;2023-09-19T16:55:24;19.50;99.90
26212;DHT22;13951;49.516;6.094;2023-09-19T16:57:58;19.40;99.90
26212;DHT22;13951;49.516;6.094;2023-09-19T17:00:32;19.40;99.90
26212;DHT22;13951;49.516;6.094;2023-09-19T17:03:07;19.30;99.90
26212;DHT22;13951;49.516;6.094;2023-09-19T17:05:42;19.30;99.90
26212;DHT22;13951;49.516;6.094;2023-09-19T17:08:16;19.30;99.90
26212;DHT22;13951;49.516;6.094;2023-09-19T17:10:50;19.20;99.90